createdAt,value
2018-07-17T00:00:10.578Z,99.90
2018-07-17T00:05:09.052Z,99.90
2018-07-17T00:07:38.177Z,99.90
2018-07-17T00:10:07.456Z,99.90
2018-07-17T00:15:05.337Z,99.90
2018-07-17T00:17:34.576Z,99.90
2018-07-17T00:20:03.486Z,99.90
2018-07-17T00:22:32.417Z,99.90
2018-07-17T00:25:01.218Z,99.90
2018-07-17T00:27:30.114Z,99.90
2018-07-17T00:29:58.960Z,99.90
2018-07-17T00:32:27.814Z,99.90
2018-07-17T00:34:56.697Z,99.90
2018-07-17T00:37:25.561Z,99.90
2018-07-17T00:39:54.404Z,99.90
2018-07-17T00:42:23.277Z,99.90
2018-07-17T00:44:52.108Z,99.90
2018-07-17T00:47:20.989Z,99.90
2018-07-17T00:49:49.821Z,99.90
2018-07-17T00:54:47.265Z,99.90
2018-07-17T00:57:16.104Z,99.90
2018-07-17T00:59:44.957Z,99.90
2018-07-17T01:02:19.230Z,99.90
2018-07-17T01:04:53.293Z,99.90
2018-07-17T01:07:27.436Z,99.90
2018-07-17T01:10:01.725Z,99.90
2018-07-17T01:12:29.931Z,99.90
2018-07-17T01:15:02.548Z,99.90
2018-07-17T01:17:32.099Z,99.90
2018-07-17T01:20:00.942Z,99.90
2018-07-17T01:22:29.866Z,99.90
2018-07-17T01:24:58.782Z,99.90
2018-07-17T01:27:27.657Z,99.90
2018-07-17T01:29:56.505Z,99.90
2018-07-17T01:32:25.375Z,99.90
2018-07-17T01:34:54.214Z,99.90
2018-07-17T01:37:23.076Z,99.90
2018-07-17T01:39:51.936Z,99.90
2018-07-17T01:42:20.851Z,99.90
2018-07-17T01:44:49.725Z,99.90
2018-07-17T01:47:18.585Z,99.90
2018-07-17T01:49:47.408Z,99.90
2018-07-17T01:52:16.252Z,99.90
2018-07-17T01:54:45.122Z,99.90
2018-07-17T01:57:13.960Z,99.90
2018-07-17T01:59:42.814Z,99.90
2018-07-17T02:02:11.837Z,99.90
2018-07-17T02:04:40.700Z,99.90
2018-07-17T02:07:09.553Z,99.90
2018-07-17T02:09:38.437Z,99.90
2018-07-17T02:12:07.279Z,99.90
2018-07-17T02:14:36.133Z,99.90
2018-07-17T02:17:05.290Z,99.90
2018-07-17T02:19:34.132Z,99.90
2018-07-17T02:22:02.993Z,99.90
2018-07-17T02:24:31.834Z,99.90
2018-07-17T02:27:00.752Z,99.90
2018-07-17T02:31:58.142Z,99.90
2018-07-17T02:34:26.992Z,99.90
2018-07-17T02:36:55.886Z,99.90
2018-07-17T02:39:24.717Z,99.90
2018-07-17T02:41:53.574Z,99.90
2018-07-17T02:44:22.560Z,99.90
2018-07-17T02:46:51.449Z,99.90
2018-07-17T02:49:20.247Z,99.90
2018-07-17T02:51:49.093Z,99.90
2018-07-17T02:54:17.936Z,99.90
2018-07-17T02:56:46.782Z,99.90
2018-07-17T02:59:15.625Z,99.90
2018-07-17T03:01:44.487Z,99.90
2018-07-17T03:04:13.582Z,99.90
2018-07-17T03:06:42.473Z,99.90
2018-07-17T03:09:11.257Z,99.90
2018-07-17T03:11:40.107Z,99.90
2018-07-17T03:14:08.958Z,99.90
2018-07-17T03:16:37.826Z,99.90
2018-07-17T03:19:06.698Z,99.90
2018-07-17T03:21:35.541Z,99.90
2018-07-17T03:24:04.508Z,99.90
2018-07-17T03:26:33.304Z,99.90
2018-07-17T03:29:02.154Z,99.90
2018-07-17T03:31:31.016Z,99.90
2018-07-17T03:34:00.130Z,99.90
2018-07-17T03:36:29.103Z,99.90
2018-07-17T03:38:57.864Z,99.90
2018-07-17T03:41:26.720Z,99.90
2018-07-17T03:43:55.578Z,99.90
2018-07-17T03:46:24.492Z,99.90
2018-07-17T03:48:53.378Z,99.90
2018-07-17T03:51:22.233Z,99.90
2018-07-17T03:53:51.065Z,99.90
2018-07-17T03:56:19.989Z,99.90
2018-07-17T03:58:48.774Z,99.90
2018-07-17T04:01:17.629Z,99.90
2018-07-17T04:03:46.563Z,99.90
2018-07-17T04:06:15.354Z,99.90
2018-07-17T04:08:44.244Z,99.90
2018-07-17T04:11:13.056Z,99.90
2018-07-17T04:13:41.902Z,99.90
2018-07-17T04:16:10.732Z,99.90
2018-07-17T04:18:39.702Z,99.90
2018-07-17T04:21:08.501Z,99.90
2018-07-17T04:23:37.362Z,99.90
2018-07-17T04:26:06.257Z,99.90
2018-07-17T04:28:35.091Z,99.90
2018-07-17T04:31:03.953Z,99.90
2018-07-17T04:33:32.761Z,99.90
2018-07-17T04:36:01.613Z,99.90
2018-07-17T04:38:30.599Z,99.90
2018-07-17T04:40:59.333Z,99.90
2018-07-17T04:43:28.198Z,99.90
2018-07-17T04:45:57.095Z,99.90
2018-07-17T04:48:25.893Z,99.90
2018-07-17T04:50:54.730Z,99.90
2018-07-17T04:53:23.666Z,99.90
2018-07-17T04:55:52.454Z,99.90
2018-07-17T04:58:21.309Z,99.90
2018-07-17T05:00:50.154Z,99.90
2018-07-17T05:03:19.024Z,99.90
2018-07-17T05:05:47.911Z,99.90
2018-07-17T05:08:16.893Z,99.50
2018-07-17T05:10:45.801Z,98.90
2018-07-17T05:13:14.601Z,97.70
2018-07-17T05:15:43.500Z,96.40
2018-07-17T05:18:12.354Z,95.30
2018-07-17T05:20:41.202Z,94.10
2018-07-17T05:23:10.063Z,93.30
2018-07-17T05:25:38.881Z,92.30
2018-07-17T05:28:07.740Z,92.90
2018-07-17T05:30:36.827Z,92.60
2018-07-17T05:33:05.636Z,92.60
2018-07-17T05:35:34.498Z,91.60
2018-07-17T05:38:03.338Z,89.60
2018-07-17T05:40:32.297Z,88.30
2018-07-17T05:43:01.166Z,88.80
2018-07-17T05:45:30.016Z,88.50
2018-07-17T05:47:58.877Z,87.00
2018-07-17T05:50:27.705Z,86.90
2018-07-17T05:52:56.553Z,87.20
2018-07-17T05:55:25.406Z,85.10
2018-07-17T05:57:54.401Z,82.80
2018-07-17T06:00:23.273Z,81.50
2018-07-17T06:02:52.108Z,79.10
2018-07-17T06:05:20.945Z,78.30
2018-07-17T06:07:50.014Z,78.90
2018-07-17T06:10:18.861Z,79.00
2018-07-17T06:12:47.701Z,79.80
2018-07-17T06:15:16.537Z,78.80
2018-07-17T06:17:45.400Z,76.30
2018-07-17T06:20:14.257Z,74.90
2018-07-17T06:22:43.114Z,72.20
2018-07-17T06:25:12.061Z,73.30
2018-07-17T06:27:40.818Z,71.20
2018-07-17T06:32:38.584Z,69.40
2018-07-17T06:35:07.797Z,69.10
2018-07-17T06:37:36.748Z,68.20
2018-07-17T06:40:05.596Z,69.00
2018-07-17T06:42:34.452Z,69.50
2018-07-17T06:45:03.301Z,69.90
2018-07-17T06:47:37.749Z,70.60
2018-07-17T06:50:06.728Z,72.00
2018-07-17T06:52:35.557Z,72.90
2018-07-17T06:55:04.474Z,72.90
2018-07-17T07:00:01.850Z,68.50
2018-07-17T07:04:59.183Z,68.10
2018-07-17T07:07:28.037Z,67.20
2018-07-17T07:09:56.898Z,66.40
2018-07-17T07:12:25.763Z,66.80
2018-07-17T07:14:54.565Z,66.90
2018-07-17T07:17:23.576Z,66.30
2018-07-17T07:19:52.404Z,67.50
2018-07-17T07:22:21.330Z,66.40
2018-07-17T07:24:50.132Z,65.30
2018-07-17T07:27:18.972Z,64.90
2018-07-17T07:29:47.821Z,63.50
2018-07-17T07:32:16.653Z,61.50
2018-07-17T07:34:45.515Z,61.10
2018-07-17T07:37:14.403Z,63.00
2018-07-17T07:39:43.187Z,60.80
2018-07-17T07:42:12.025Z,59.20
2018-07-17T07:44:40.868Z,58.10
2018-07-17T07:47:09.897Z,57.20
2018-07-17T07:49:38.810Z,56.40
2018-07-17T07:52:07.649Z,56.20
2018-07-17T07:54:36.489Z,54.20
2018-07-17T07:57:05.498Z,54.10
2018-07-17T07:59:34.298Z,54.40
2018-07-17T08:02:03.133Z,54.50
2018-07-17T08:04:31.998Z,55.30
2018-07-17T08:07:00.862Z,53.60
2018-07-17T08:09:29.653Z,52.90
2018-07-17T08:14:27.085Z,52.20
2018-07-17T08:16:55.933Z,51.40
2018-07-17T08:19:24.785Z,50.10
2018-07-17T08:21:53.637Z,51.90
2018-07-17T08:24:22.545Z,52.30
2018-07-17T08:26:51.372Z,51.20
2018-07-17T08:29:20.200Z,50.90
2018-07-17T08:31:49.041Z,53.10
2018-07-17T08:34:17.892Z,52.90
2018-07-17T08:36:46.733Z,50.70
2018-07-17T08:39:15.583Z,54.30
2018-07-17T08:41:44.419Z,53.90
2018-07-17T08:44:13.301Z,53.90
2018-07-17T08:46:42.112Z,54.70
2018-07-17T08:51:39.470Z,56.70
2018-07-17T08:54:08.391Z,58.00
2018-07-17T08:56:37.156Z,57.70
2018-07-17T08:59:06.009Z,56.90
2018-07-17T09:01:34.902Z,57.90
2018-07-17T09:04:03.729Z,55.90
2018-07-17T09:06:32.572Z,55.60
2018-07-17T09:09:01.504Z,54.60
2018-07-17T09:11:30.312Z,54.60
2018-07-17T09:13:59.170Z,55.10
2018-07-17T09:16:28.010Z,56.00
2018-07-17T09:18:56.958Z,56.20
2018-07-17T09:21:25.766Z,58.00
2018-07-17T09:23:54.614Z,57.10
2018-07-17T09:26:23.484Z,54.60
2018-07-17T09:28:52.307Z,53.50
2018-07-17T09:31:21.153Z,51.50
2018-07-17T09:33:49.999Z,50.60
2018-07-17T09:36:18.890Z,52.40
2018-07-17T09:38:47.678Z,52.00
2018-07-17T09:41:16.525Z,49.10
2018-07-17T09:43:45.387Z,48.50
2018-07-17T09:46:14.221Z,50.30
2018-07-17T09:48:43.073Z,52.70
2018-07-17T09:51:11.921Z,53.90
2018-07-17T09:53:40.765Z,53.50
2018-07-17T09:56:09.619Z,53.80
2018-07-17T09:58:38.592Z,54.60
2018-07-17T10:01:12.900Z,54.10
2018-07-17T10:03:41.779Z,53.40
2018-07-17T10:06:10.685Z,53.30
2018-07-17T10:08:39.514Z,52.70
2018-07-17T10:13:36.876Z,52.50
2018-07-17T10:16:05.707Z,52.50
2018-07-17T10:18:34.621Z,53.70
2018-07-17T10:21:03.537Z,55.20
2018-07-17T10:23:32.325Z,55.80
2018-07-17T10:26:01.318Z,53.60
2018-07-17T10:28:30.152Z,53.30
2018-07-17T10:30:58.993Z,54.00
2018-07-17T10:33:27.853Z,52.80
2018-07-17T10:35:56.677Z,50.90
2018-07-17T10:38:25.500Z,52.10
2018-07-17T10:40:54.362Z,50.30
2018-07-17T10:43:23.188Z,52.40
2018-07-17T10:45:52.045Z,54.60
2018-07-17T10:48:20.868Z,54.40
2018-07-17T10:50:49.726Z,54.80
2018-07-17T10:53:18.558Z,54.70
2018-07-17T10:55:47.409Z,56.20
2018-07-17T10:58:16.394Z,56.50
2018-07-17T11:00:45.228Z,56.30
2018-07-17T11:03:14.081Z,56.30
2018-07-17T11:05:42.963Z,55.30
2018-07-17T11:08:11.898Z,56.40
2018-07-17T11:10:40.676Z,56.50
2018-07-17T11:13:09.532Z,55.40
2018-07-17T11:15:38.390Z,57.40
2018-07-17T11:18:07.226Z,55.40
2018-07-17T11:20:36.069Z,54.30
2018-07-17T11:23:04.926Z,53.70
2018-07-17T11:25:33.761Z,54.00
2018-07-17T11:28:02.706Z,55.50
2018-07-17T11:30:31.553Z,55.50
2018-07-17T11:33:00.458Z,54.30
2018-07-17T11:35:29.266Z,55.90
2018-07-17T11:37:58.109Z,56.30
2018-07-17T11:40:26.938Z,55.80
2018-07-17T11:42:55.849Z,55.80
2018-07-17T11:45:24.684Z,56.10
2018-07-17T11:47:58.574Z,55.90
2018-07-17T11:50:27.407Z,51.00
2018-07-17T11:52:56.284Z,51.60
2018-07-17T11:55:25.109Z,50.70
2018-07-17T11:57:53.976Z,50.20
2018-07-17T12:00:22.778Z,52.70
2018-07-17T12:02:51.645Z,52.30
2018-07-17T12:05:20.550Z,52.20
2018-07-17T12:07:49.333Z,52.50
2018-07-17T12:10:18.229Z,51.50
2018-07-17T12:12:47.129Z,50.70
2018-07-17T12:15:16.016Z,51.00
2018-07-17T12:17:44.793Z,50.10
2018-07-17T12:20:13.766Z,50.10
2018-07-17T12:25:11.162Z,49.00
2018-07-17T12:27:39.986Z,49.00
2018-07-17T12:30:08.848Z,49.10
2018-07-17T12:35:06.277Z,47.90
2018-07-17T12:37:35.133Z,49.70
2018-07-17T12:40:04.268Z,49.90
2018-07-17T12:42:33.120Z,50.00
2018-07-17T12:47:30.457Z,49.50
2018-07-17T12:49:59.366Z,50.00
2018-07-17T12:52:28.164Z,48.80
2018-07-17T12:54:56.993Z,48.50
2018-07-17T12:57:25.839Z,51.10
2018-07-17T12:59:54.670Z,53.30
2018-07-17T13:02:23.545Z,54.30
2018-07-17T13:04:52.371Z,54.10
2018-07-17T13:07:21.221Z,55.00
2018-07-17T13:09:50.078Z,55.50
2018-07-17T13:12:18.905Z,55.60
2018-07-17T13:14:47.807Z,56.70
2018-07-17T13:17:16.648Z,55.90
2018-07-17T13:19:45.461Z,55.40
2018-07-17T13:22:14.309Z,55.70
2018-07-17T13:24:43.526Z,56.00
2018-07-17T13:27:12.330Z,55.60
2018-07-17T13:29:41.165Z,56.20
2018-07-17T13:32:10.096Z,56.10
2018-07-17T13:34:38.892Z,56.40
2018-07-17T13:37:07.717Z,58.30
2018-07-17T13:39:36.540Z,58.00
2018-07-17T13:42:05.425Z,58.20
2018-07-17T13:44:34.245Z,58.30
2018-07-17T13:47:03.105Z,57.40
2018-07-17T13:49:31.933Z,58.90
2018-07-17T13:52:00.781Z,59.50
2018-07-17T13:54:29.632Z,59.80
2018-07-17T13:56:58.506Z,60.00
2018-07-17T13:59:27.310Z,59.80
2018-07-17T14:01:56.177Z,57.50
2018-07-17T14:04:25.003Z,58.80
2018-07-17T14:06:53.862Z,58.40
2018-07-17T14:09:22.749Z,58.30
2018-07-17T14:11:51.650Z,68.10
2018-07-17T14:14:20.425Z,70.00
2018-07-17T14:16:49.268Z,71.50
2018-07-17T14:19:18.211Z,69.80
2018-07-17T14:21:47.012Z,64.80
2018-07-17T14:24:15.852Z,62.20
2018-07-17T14:26:44.784Z,61.90
2018-07-17T14:29:13.776Z,59.40
2018-07-17T14:31:42.666Z,56.80
2018-07-17T14:34:11.468Z,58.20
2018-07-17T14:36:40.329Z,58.70
2018-07-17T14:39:10.797Z,57.40
2018-07-17T14:41:39.818Z,58.00
2018-07-17T14:44:08.658Z,58.90
2018-07-17T14:46:37.505Z,58.60
2018-07-17T14:49:06.361Z,59.30
2018-07-17T14:51:35.228Z,58.80
2018-07-17T14:54:04.035Z,60.00
2018-07-17T14:56:32.873Z,59.50
2018-07-17T14:59:01.798Z,59.20
2018-07-17T15:01:30.689Z,59.30
2018-07-17T15:03:59.491Z,59.70
2018-07-17T15:08:56.956Z,59.40
2018-07-17T15:11:25.972Z,58.70
2018-07-17T15:13:54.833Z,56.50
2018-07-17T15:16:23.729Z,57.50
2018-07-17T15:18:52.522Z,56.80
2018-07-17T15:21:21.426Z,56.40
2018-07-17T15:23:50.221Z,57.30
2018-07-17T15:26:19.073Z,57.40
2018-07-17T15:28:47.912Z,58.20
2018-07-17T15:31:16.781Z,58.10
2018-07-17T15:33:45.620Z,57.90
2018-07-17T15:36:14.551Z,58.20
2018-07-17T15:38:43.445Z,58.80
2018-07-17T15:41:12.333Z,58.40
2018-07-17T15:43:41.225Z,55.00
2018-07-17T15:46:10.012Z,54.70
2018-07-17T15:48:38.904Z,54.50
2018-07-17T15:51:07.692Z,54.80
2018-07-17T15:53:36.537Z,55.50
2018-07-17T15:56:05.385Z,55.50
2018-07-17T15:58:34.263Z,55.80
2018-07-17T16:01:03.090Z,56.80
2018-07-17T16:03:31.957Z,57.00
2018-07-17T16:06:00.849Z,57.30
2018-07-17T16:08:29.657Z,58.10
2018-07-17T16:10:58.552Z,58.30
2018-07-17T16:13:27.624Z,57.00
2018-07-17T16:15:56.221Z,58.00
2018-07-17T16:18:25.088Z,59.00
2018-07-17T16:20:53.921Z,59.00
2018-07-17T16:23:22.769Z,59.70
2018-07-17T16:25:51.632Z,60.10
2018-07-17T16:28:20.456Z,60.60
2018-07-17T16:30:49.313Z,62.10
2018-07-17T16:33:18.161Z,62.60
2018-07-17T16:35:47.013Z,63.60
2018-07-17T16:38:15.857Z,64.10
2018-07-17T16:40:44.711Z,64.30
2018-07-17T16:43:13.548Z,64.40
2018-07-17T16:45:42.429Z,63.80
2018-07-17T16:48:11.286Z,63.80
2018-07-17T16:50:40.141Z,65.10
2018-07-17T16:53:09.041Z,64.70
2018-07-17T16:55:37.885Z,65.20
2018-07-17T16:58:06.812Z,65.70
2018-07-17T17:00:35.636Z,66.40
2018-07-17T17:03:04.484Z,66.70
2018-07-17T17:05:33.348Z,67.40
2018-07-17T17:08:02.220Z,67.50
2018-07-17T17:10:31.087Z,67.20
2018-07-17T17:12:59.943Z,67.70
2018-07-17T17:15:28.868Z,68.20
2018-07-17T17:17:57.756Z,68.70
2018-07-17T17:20:26.601Z,69.50
2018-07-17T17:22:55.440Z,69.50
2018-07-17T17:25:24.313Z,69.50
2018-07-17T17:27:53.148Z,69.80
2018-07-17T17:30:21.996Z,69.90
2018-07-17T17:32:50.900Z,70.00
2018-07-17T17:35:19.662Z,71.20
2018-07-17T17:37:48.507Z,72.00
2018-07-17T17:40:17.369Z,72.90
2018-07-17T17:42:46.258Z,73.50
2018-07-17T17:45:15.067Z,73.20
2018-07-17T17:47:43.901Z,72.90
2018-07-17T17:50:12.827Z,73.00
2018-07-17T17:52:41.600Z,72.90
2018-07-17T17:55:10.457Z,72.40
2018-07-17T17:57:39.305Z,72.70
2018-07-17T18:00:08.157Z,72.30
2018-07-17T18:02:37.012Z,71.90
2018-07-17T18:05:06.019Z,73.30
2018-07-17T18:07:34.853Z,73.70
2018-07-17T18:10:03.721Z,73.80
2018-07-17T18:12:32.644Z,73.80
2018-07-17T18:15:01.441Z,75.10
2018-07-17T18:19:58.813Z,75.00
2018-07-17T18:22:27.657Z,75.90
2018-07-17T18:24:56.508Z,76.60
2018-07-17T18:27:25.361Z,76.70
2018-07-17T18:29:54.184Z,76.80
2018-07-17T18:32:23.054Z,77.30
2018-07-17T18:34:51.880Z,77.10
2018-07-17T18:37:20.712Z,77.40
2018-07-17T18:39:49.554Z,77.30
2018-07-17T18:42:18.516Z,77.30
2018-07-17T18:44:47.229Z,76.90
2018-07-17T18:47:16.088Z,76.70
2018-07-17T18:49:44.914Z,77.60
2018-07-17T18:52:13.749Z,77.80
2018-07-17T18:54:42.592Z,76.50
2018-07-17T18:57:11.468Z,75.90
2018-07-17T18:59:40.284Z,75.60
2018-07-17T19:02:09.107Z,75.70
2018-07-17T19:04:37.942Z,76.60
2018-07-17T19:07:06.796Z,76.60
2018-07-17T19:09:35.668Z,76.70
2018-07-17T19:12:04.502Z,77.20
2018-07-17T19:14:33.360Z,77.20
2018-07-17T19:17:02.180Z,77.30
2018-07-17T19:19:31.041Z,78.00
2018-07-17T19:21:59.880Z,77.50
2018-07-17T19:24:28.797Z,77.90
2018-07-17T19:26:57.564Z,78.00
2018-07-17T19:29:26.437Z,78.30
2018-07-17T19:31:55.260Z,78.40
2018-07-17T19:34:24.108Z,78.40
2018-07-17T19:36:52.936Z,78.60
2018-07-17T19:39:21.782Z,79.60
2018-07-17T19:41:50.676Z,79.70
2018-07-17T19:44:19.499Z,80.00
2018-07-17T19:46:48.456Z,80.50
2018-07-17T19:49:17.236Z,80.90
2018-07-17T19:51:46.096Z,81.10
2018-07-17T19:54:15.028Z,81.80
2018-07-17T19:56:43.820Z,81.30
2018-07-17T19:59:12.659Z,81.20
2018-07-17T20:01:42.386Z,81.40
2018-07-17T20:04:11.216Z,82.10
2018-07-17T20:06:40.252Z,81.50
2018-07-17T20:09:09.705Z,81.10
2018-07-17T20:11:38.565Z,80.90
2018-07-17T20:14:07.702Z,81.10
2018-07-17T20:16:36.613Z,81.10
2018-07-17T20:19:05.480Z,81.30
2018-07-17T20:21:34.337Z,81.60
2018-07-17T20:24:03.169Z,82.10
2018-07-17T20:29:00.573Z,83.10
2018-07-17T20:31:29.419Z,83.40
2018-07-17T20:33:58.249Z,83.40
2018-07-17T20:36:27.101Z,83.80
2018-07-17T20:38:55.990Z,84.70
2018-07-17T20:41:24.804Z,85.90
2018-07-17T20:46:22.180Z,87.20
2018-07-17T20:48:51.016Z,87.80
2018-07-17T20:51:19.873Z,89.00
2018-07-17T20:53:48.717Z,90.10
2018-07-17T20:56:17.564Z,90.50
2018-07-17T20:58:46.491Z,90.50
2018-07-17T21:01:15.268Z,90.50
2018-07-17T21:03:44.113Z,90.60
2018-07-17T21:06:12.974Z,90.30
2018-07-17T21:08:41.862Z,90.20
2018-07-17T21:11:10.661Z,90.20
2018-07-17T21:16:08.333Z,89.00
2018-07-17T21:18:37.164Z,89.50
2018-07-17T21:21:12.136Z,89.40
2018-07-17T21:23:40.974Z,89.30
2018-07-17T21:26:09.795Z,89.10
2018-07-17T21:28:38.640Z,89.60
2018-07-17T21:31:07.493Z,90.10
2018-07-17T21:33:36.336Z,90.50
2018-07-17T21:36:05.372Z,90.90
2018-07-17T21:38:34.105Z,91.00
2018-07-17T21:41:02.969Z,91.20
2018-07-17T21:43:31.808Z,91.70
2018-07-17T21:46:00.629Z,91.70
2018-07-17T21:48:29.477Z,92.20
2018-07-17T21:50:58.317Z,92.80
2018-07-17T21:53:27.172Z,92.50
2018-07-17T21:55:56.023Z,92.70
2018-07-17T21:58:24.862Z,93.00
2018-07-17T22:00:53.777Z,93.10
2018-07-17T22:03:22.800Z,93.50
2018-07-17T22:05:51.640Z,93.80
2018-07-17T22:08:20.578Z,93.60
2018-07-17T22:10:49.380Z,94.00
2018-07-17T22:13:18.216Z,94.10
2018-07-17T22:15:47.053Z,94.40
2018-07-17T22:18:15.904Z,94.60
2018-07-17T22:20:44.740Z,95.00
2018-07-17T22:23:13.581Z,94.80
2018-07-17T22:25:42.477Z,94.80
2018-07-17T22:28:11.302Z,94.60
2018-07-17T22:30:40.182Z,94.80
2018-07-17T22:33:08.969Z,95.20
2018-07-17T22:35:37.817Z,95.20
2018-07-17T22:38:06.677Z,95.00
2018-07-17T22:40:35.545Z,95.00
2018-07-17T22:43:04.373Z,94.60
2018-07-17T22:45:33.217Z,94.40
2018-07-17T22:48:02.112Z,94.30
2018-07-17T22:50:30.893Z,94.60
2018-07-17T22:52:59.728Z,95.00
2018-07-17T22:55:28.582Z,95.20
2018-07-17T22:57:57.430Z,95.50
2018-07-17T23:00:26.280Z,95.80
2018-07-17T23:02:55.101Z,95.90
2018-07-17T23:05:23.957Z,96.30
2018-07-17T23:07:52.802Z,96.80
2018-07-17T23:10:21.737Z,96.90
2018-07-17T23:12:50.601Z,97.60
2018-07-17T23:15:19.428Z,98.00
2018-07-17T23:17:48.257Z,98.30
2018-07-17T23:20:17.185Z,98.60
2018-07-17T23:22:59.252Z,99.00
2018-07-17T23:25:29.432Z,99.30
2018-07-17T23:30:27.304Z,99.90
2018-07-17T23:32:56.183Z,99.90
2018-07-17T23:35:25.687Z,99.90
2018-07-17T23:37:54.700Z,99.90
2018-07-17T23:40:23.778Z,99.90
2018-07-17T23:42:52.569Z,99.90
2018-07-17T23:45:21.404Z,99.90
2018-07-17T23:47:50.244Z,99.90
2018-07-17T23:50:19.093Z,99.90
2018-07-17T23:52:47.921Z,99.90
2018-07-17T23:55:16.765Z,99.90
2018-07-17T23:57:45.596Z,99.90
